Buckeye, Texas
Current Conditions -  °F | °C
As of 10:53 PM on Wednesday 22 Oct 2014 (Local Time) from KLBX Reporting Station
Clear Clear  
Wind Chill: 60°   Ceiling: Unl
Heat Index: 60°   Visibility: 9mi
Dew Point: 60°   Wind: 3mph
Humidity: 100%   Direction: 350°N
Pressure: 30.09"   Gusts: NA
Location:  28.8997°N, 95.7887°W
Report Text: KLBX 230353Z AUTO 35003KT 9SM CLR 16/16 A3009 RMK AO2 SLP189 T01560156
Loading
Personal Weather Stations






























Interactive Weather Map New forecast layout! Learn more

10-Day Weather Forecast

Advertisements
Track Severe Weather on mobile